Terminal Aerodrome Forecast
Issued by NWS

Home | Current Version | Previous Version | Text Only | Print | Product List | Glossary On
Versions: 1 2 3 4 5 6 7 8 9 10 11 12 13 14 15 16 17 18 19 20 21 22
000
FTUS43 KGRB 202300
TAFCWA
TAF
KCWA 202340Z 2100/2124 14004KT P6SM OVC015
     FM210300 16004KT 5SM BR OVC010
     FM210700 16005KT 4SM -FZDZ BR OVC007
      TEMPO 2109/2113 2SM -FZDZ BR OVC003
     FM211500 14007KT 5SM -FZDZSN BR OVC007
     FM212100 15010KT 4SM -DZSN BR OVC012
      AMD LTD TO CLD VIS AND WIND 2103/2111=

USA.gov is the U.S. government's official web portal to all federal, state and local government web resources and services.